メインページ
METAR-TAF:

METAR-TAF

空港 :

デンバー, コロラド州, アメリカ合衆国

デンバー国際空港

緯度: 39-49-58N, 経度: 104-39-27W, 海抜: 1655m

現時点の気象観測

当レポートは1時間11分前の20:53(UTC)に作成
東/北東の風 11kt
気温 -11°C
湿度 85%
気圧 1000 hPa
視程: 4.0km
高度1000ftの曇り
小雪

METAR: KDEN 192053Z 07011KT 2 1/2SM -SN OVC010 M11/M13 A2954 RMK AO2 SLP052 P0000 60000 T11061133 56025 $

時間: 15:04 (22:04 UTC)

予報

当レポートは1時間58分前の20:06(UTC)に作成
予報は19日の 20時(UTC)から 20日の 24時(UTC)まで有効
東/北東の風 11kt
視程: 4.8km
高度1100ftの曇り
小雪, 靄
19日の 22時(UTC)から 20日の 02時(UTC)まで一時的に
視程: 1.2km
高度700ftの曇り
小雪, 靄
20日の 0400時(UTC)から
の風 14kt
視程: 4.8km
高度500ftの曇り
小雪, 靄
20日の 0700時(UTC)から
の風 10kt
視程: 8.0km
高度1200ftの曇り
20日の 1000時(UTC)から
北東の風 8kt
視程: 4.8km
高度400ftの雲は散在している
高度800ftの曇り
20日の 1500時(UTC)から
東/南東の風 4kt
視程: 10km
高度1500ftの雲は散在している
高度2500ftの千切れ雲あり
20日の 1800時(UTC)から
の風 7kt
視程: 10km
高度3000ftの雲は散在している
高度15000ftの雲は散在している

TAF: KDEN 192006Z 1920/2024 06011KT 3SM -SN BR OVC011 TEMPO 1922/2002 3/4SM -SN BR OVC007 FM200400 01014KT 3SM -SN BR OVC005 FM200700 35010KT 5SM BR OVC012 FM201000 04008KT 3SM BR SCT004 OVC008 FM201500 11004KT P6SM SCT015 BKN025 FM201800 08007KT P6SM SCT030 SCT150

4,000以上の空港の気象観測と天気予報(METAR報とTAF報)

利用可能な観測所は地図上に黄色い丸と赤い丸で示す。

丸の上にカーソルを重ねると観測所名を参照できる。

次にクリックすると気象観測と天気予報を参照できる。

マップの切り替え:黒色「×」印の緑ボタンをクリックして拡大、「-」印の緑ボタンをクリックして縮小、緑色の三角印をクリックして隣りの地図に切り替え


METAR-TAF: